• Join FlightAware (Why Join?)
  • Login
  • US Flag GB Flag 
17:11 EDT


 

Airport Tracker/Info


-or-


 

Live Flight TrackerFlight Track Log ✈ DAL3673 ✈ 21-Apr-2013 ✈ KMSP - KLSE

Flight Track Log - Related Links

Times and Time Zones

All times are in EDT time to prevent confusion due to time zone crossing. See the DAL3673 flight status page for this flight to view local times or setup timezone preferences in your user account.

Time Position Orientation Groundspeed Altitude Reporting Facility
EDT Latitude Longitude Course Direction KTS MPH feet Rate Location/Type
15:40 44.8500 -93.2333 181° South 132 152 2,100  Level Minneapolis TRACON
15:41 44.8472 -93.2169 103° East 138 159 2,500 1,380 Climbing FAA TRACON SMA TRACON (SMA)
15:41 44.8358 -93.2028 139° Southeast 164 189 3,000 1,920 Climbing FAA TRACON SMA TRACON (SMA)
15:41 44.8247 -93.1875 136° Southeast 181 208 3,800 1,740 Climbing FAA TRACON SMA TRACON (SMA)
15:42 44.8100 -93.1642 132° Southeast 203 234 4,200 1,200 Climbing FAA TRACON SMA TRACON (SMA)
15:42 44.7956 -93.1417 132° Southeast 239 275 4,600 1,860 Climbing FAA TRACON SMA TRACON (SMA)
15:42 44.7797 -93.1186 134° Southeast 261 300 5,500 3,360 Climbing FAA TRACON SMA TRACON (SMA)
15:43 44.7608 -93.0881 131° Southeast 270 311 6,900 3,360 Climbing FAA TRACON SMA TRACON (SMA)
15:43 44.7453 -93.0636 132° Southeast 272 313 7,700 2,460 Climbing FAA TRACON SMA TRACON (SMA)
15:43 44.7289 -93.0383 132° Southeast 279 321 8,500 2,700 Climbing FAA TRACON SMA TRACON (SMA)
15:44 44.6797 -92.8146 139° Southeast  Level Estimated
15:44 44.7078 -93.0067 133° Southeast 288 331 9,500  Level FAA TRACON SMA TRACON (SMA)
15:44 44.6911 -92.9814 133° Southeast 289 333 10,500 2,100 Climbing FAA TRACON SMA TRACON (SMA)
15:44 44.6742 -92.9547 132° Southeast 293 337 10,900 720 Climbing FAA TRACON SMA TRACON (SMA)
15:45 44.6290 -92.7132 141° Southeast  Level Estimated
15:45 44.6519 -92.9208 133° Southeast 306 352 11,000  Level FAA TRACON SMA TRACON (SMA)
15:45 44.6333 -92.8925 133° Southeast 316 364 11,000  Level FAA TRACON SMA TRACON (SMA)
15:45 44.6144 -92.8642 133° Southeast 323 372 11,000  Level FAA TRACON SMA TRACON (SMA)
15:46 44.5408 -92.7149 181° South  Level FlightAware Approximate
15:46 44.5906 -92.8278 133° Southeast 330 380 11,000  Level FAA TRACON SMA TRACON (SMA)
15:46 44.5717 -92.7969 131° Southeast 334 384 11,000  Level FAA TRACON SMA TRACON (SMA)
15:46 44.5519 -92.7675 133° Southeast 336 387 11,000  Level FAA TRACON SMA TRACON (SMA)
15:47 44.5325 -92.7367 131° Southeast 340 391 11,000  Level FAA TRACON SMA TRACON (SMA)
15:47 44.5072 -92.6989 133° Southeast 344 396 11,000  Level FAA TRACON SMA TRACON (SMA)
15:47 44.4875 -92.6681 132° Southeast 345 397 11,000  Level FAA TRACON SMA TRACON (SMA)
15:48 44.4678 -92.6367 131° Southeast 346 398 11,000  Level FAA TRACON SMA TRACON (SMA)
15:48 44.4431 -92.5986 132° Southeast 346 398 11,000  Level FAA TRACON SMA TRACON (SMA)
15:48 44.4233 -92.5683 132° Southeast 342 394 11,000 -180 Level FAA TRACON SMA TRACON (SMA)
15:49 44.3986 -92.5311 133° Southeast 340 391 10,900  Descending FAA TRACON SMA TRACON (SMA)
15:49 44.3806 -92.4992 128° Southeast 338 389 11,000 120 Climbing FAA TRACON SMA TRACON (SMA)
15:49 44.3603 -92.4703 134° Southeast 337 388 11,000  Level FAA TRACON SMA TRACON (SMA)
15:50 44.3428 -92.4383 127° Southeast 337 388 11,000  Level FAA TRACON SMA TRACON (SMA)
15:50 44.3244 -92.3939 120° Southeast 340 391 11,000  Level FAA TRACON SMA TRACON (SMA)
15:51 44.2942 -92.3244 121° Southeast 340 391 11,000  Level FAA TRACON SMA TRACON (SMA)
15:51 44.2753 -92.2814 121° Southeast 338 389 11,000  Level FAA TRACON SMA TRACON (SMA)
15:51 44.2614 -92.2450 118° Southeast 341 392 11,000  Level FAA TRACON SMA TRACON (SMA)
15:52 44.2461 -92.2114 122° Southeast 339 390 11,000  Level FAA TRACON SMA TRACON (SMA)
15:52 44.2350 -92.1847 120° Southeast 339 390 11,000 -360 Level FAA TRACON SMA TRACON (SMA)
15:53 44.1761 -92.0258 117° Southeast 320 368 10,400 -720 Descending Minneapolis Center
15:54 44.1511 -91.9081 106° East 299 344 9,300 -1,080 Descending Minneapolis Center
15:55 44.1283 -91.7961 106° East 304 350 8,300 -1,020 Descending Minneapolis Center
15:56 44.1025 -91.6786 107° East 297 342 7,300 -660 Descending Minneapolis Center
15:57 44.0792 -91.5731 107° East 291 335 7,000 -180 Descending Minneapolis Center
15:58 44.0581 -91.4778 107° East 259 298 7,000 -960 Level Minneapolis Center
15:59 44.0400 -91.3856 105° East 234 269 5,100 -1,440 Descending Minneapolis Center
16:00 44.0244 -91.3039 105° East 221 254 4,100 -540 Descending Minneapolis Center
16:01 44.0153 -91.2325 100° East 186 214 4,000 -60 Descending Minneapolis Center
16:02 44.0564 -91.1931 35° Northeast 225 259 4,000  Level Minneapolis Center
16:03 44.0711 -91.2661 286° West 190 219 4,000 -60 Level Minneapolis Center
16:04 44.0394 -91.2794 197° South 157 181 3,900 -120 Descending Minneapolis Center